Time;durP1;ratioP1;P1;durP2;ratioP2;P2;SDS_P1;SDS_P2;PMS_P1;PMS_P2;Temp;Humidity;BMP_temperature;BMP_pressure;BME280_temperature;BME280_humidity;BME280_pressure;Samples;Min_cycle;Max_cycle;Signal;HPM_P1;HPM_P2
2023/06/03 00:02:02;;;;;;;1.30;1.10;;;15.60;99.90;;;;;;5056392;28;20169;-53
2023/06/03 00:04:29;;;;;;;3.67;1.63;;;15.60;99.90;;;;;;5055854;28;20201;-56
2023/06/03 00:06:59;;;;;;;1.33;1.17;;;15.60;99.90;;;;;;5040054;28;20169;-57
2023/06/03 00:09:27;;;;;;;3.77;1.60;;;15.50;99.90;;;;;;5055492;28;20205;-57
2023/06/03 00:11:56;;;;;;;2.27;1.50;;;15.50;99.90;;;;;;5054689;28;20166;-55
2023/06/03 00:14:24;;;;;;;4.57;1.63;;;15.40;99.90;;;;;;5054880;28;20250;-55
2023/06/03 00:16:52;;;;;;;3.07;1.43;;;15.40;99.90;;;;;;5054454;28;20212;-56
2023/06/03 00:19:22;;;;;;;5.47;1.63;;;15.40;99.90;;;;;;5053672;28;20170;-55
2023/06/03 00:21:50;;;;;;;4.93;1.50;;;15.30;99.90;;;;;;5055507;28;20177;-55
2023/06/03 00:24:25;;;;;;;2.17;1.13;;;15.30;99.90;;;;;;5056990;28;20176;-57
2023/06/03 00:26:54;;;;;;;2.07;1.33;;;15.30;99.90;;;;;;5056396;28;20175;-55
2023/06/03 00:29:24;;;;;;;2.37;1.50;;;15.20;99.90;;;;;;5072660;28;20316;-57
2023/06/03 00:31:54;;;;;;;1.60;1.40;;;15.10;99.90;;;;;;5076851;28;20165;-55
2023/06/03 00:34:23;;;;;;;1.80;1.50;;;15.00;99.90;;;;;;5058670;28;20290;-55
2023/06/03 00:36:58;;;;;;;1.87;1.13;;;15.00;99.90;;;;;;5058956;28;20180;-57
2023/06/03 00:39:25;;;;;;;2.07;1.40;;;15.00;99.90;;;;;;5059229;28;20554;-57
2023/06/03 00:41:54;;;;;;;1.67;1.30;;;14.90;99.90;;;;;;5058985;28;20173;-55
2023/06/03 00:44:23;;;;;;;2.03;1.20;;;14.90;99.90;;;;;;5059970;28;20176;-52
2023/06/03 00:46:51;;;;;;;3.40;1.30;;;14.90;99.90;;;;;;5077577;28;20326;-55
2023/06/03 00:49:19;;;;;;;2.23;1.73;;;14.90;99.90;;;;;;5076811;28;20192;-53
2023/06/03 00:51:48;;;;;;;2.20;1.57;;;14.80;99.90;;;;;;5059972;28;20165;-56
2023/06/03 00:54:17;;;;;;;6.50;1.80;;;14.80;99.90;;;;;;5059193;28;20169;-51
2023/06/03 00:56:50;;;;;;;8.00;2.10;;;14.70;99.90;;;;;;5058343;28;20215;-52
2023/06/03 00:59:20;;;;;;;4.37;1.80;;;14.70;99.90;;;;;;5093203;28;20172;-55
2023/06/03 01:01:50;;;;;;;1.93;1.47;;;14.60;99.90;;;;;;5058728;28;20472;-54
2023/06/03 01:04:25;;;;;;;3.17;1.63;;;14.60;99.90;;;;;;5058979;28;20287;-52
2023/06/03 01:07:15;;;;;;;2.60;1.40;;;14.60;99.90;;;;;;5059768;28;20176;-55
2023/06/03 01:09:50;;;;;;;1.83;1.57;;;14.50;99.90;;;;;;5059150;28;20595;-57
2023/06/03 01:12:44;;;;;;;1.60;1.10;;;14.40;99.90;;;;;;5076807;28;20187;-55
2023/06/03 01:15:20;;;;;;;1.67;1.17;;;14.50;99.90;;;;;;5059255;28;20485;-55
2023/06/03 01:17:52;;;;;;;2.93;1.07;;;14.40;99.90;;;;;;5076327;28;20255;-56
2023/06/03 01:20:26;;;;;;;2.57;1.30;;;14.30;99.90;;;;;;5075684;28;20169;-52
2023/06/03 01:23:11;;;;;;;1.47;1.00;;;14.30;99.90;;;;;;5058905;28;20188;-55
2023/06/03 01:25:43;;;;;;;2.37;1.13;;;14.20;99.90;;;;;;5075757;28;20161;-55
2023/06/03 01:28:11;;;;;;;1.57;1.17;;;14.10;99.90;;;;;;5092009;28;20216;-52
2023/06/03 01:30:40;;;;;;;2.70;1.40;;;14.10;99.90;;;;;;5059354;28;20224;-51
2023/06/03 01:33:08;;;;;;;1.10;1.00;;;14.00;99.90;;;;;;5059599;28;20164;-54
2023/06/03 01:35:38;;;;;;;1.90;1.50;;;14.00;99.90;;;;;;5059537;28;20171;-54
2023/06/03 01:38:08;;;;;;;3.00;1.50;;;13.90;99.90;;;;;;5059669;28;20271;-56
2023/06/03 01:40:38;;;;;;;2.67;1.40;;;14.00;99.90;;;;;;5059334;28;20173;-57
2023/06/03 01:43:08;;;;;;;1.60;1.30;;;14.00;99.90;;;;;;5058813;28;20182;-54
2023/06/03 01:45:36;;;;;;;1.53;1.30;;;14.00;99.90;;;;;;5057362;28;20216;-55
2023/06/03 01:48:05;;;;;;;2.43;1.57;;;13.80;99.90;;;;;;5075332;28;20171;-57
2023/06/03 01:50:34;;;;;;;4.07;1.67;;;13.70;99.90;;;;;;5075609;28;20265;-57
2023/06/03 01:53:02;;;;;;;3.23;1.33;;;13.70;99.90;;;;;;5057987;28;20176;-57
2023/06/03 01:55:31;;;;;;;2.37;1.70;;;13.70;99.90;;;;;;5076696;28;20160;-57
2023/06/03 01:57:59;;;;;;;2.67;1.40;;;13.60;99.90;;;;;;5058940;28;20199;-55
2023/06/03 02:00:28;;;;;;;3.27;1.60;;;13.70;99.90;;;;;;5058793;28;20183;-56
2023/06/03 02:02:57;;;;;;;4.80;2.20;;;13.60;99.90;;;;;;5059012;28;20177;-57
2023/06/03 02:05:25;;;;;;;3.63;2.10;;;13.60;99.90;;;;;;5076812;28;20169;-54
2023/06/03 02:07:53;;;;;;;6.70;2.20;;;13.50;99.90;;;;;;5076742;28;20190;-57
2023/06/03 02:10:20;;;;;;;2.67;1.70;;;13.50;99.90;;;;;;5058725;28;20200;-55
2023/06/03 02:12:48;;;;;;;2.30;1.50;;;13.40;99.90;;;;;;5076406;28;20250;-50
2023/06/03 02:15:17;;;;;;;2.93;1.60;;;13.40;99.90;;;;;;5090913;28;20279;-54
2023/06/03 02:17:43;;;;;;;4.50;1.60;;;13.30;99.90;;;;;;5072473;28;20161;-55
2023/06/03 02:20:09;;;;;;;2.67;1.43;;;13.20;99.90;;;;;;5056138;28;20590;-56
2023/06/03 02:22:36;;;;;;;2.93;1.53;;;13.10;99.90;;;;;;5091336;28;20591;-54
2023/06/03 02:25:02;;;;;;;4.13;1.47;;;13.20;99.90;;;;;;5058836;28;20564;-56
2023/06/03 02:27:28;;;;;;;2.90;1.10;;;13.20;99.90;;;;;;5058276;28;20173;-55
2023/06/03 02:29:53;;;;;;;3.17;1.37;;;13.20;99.90;;;;;;5057985;28;20228;-56
2023/06/03 02:32:20;;;;;;;2.67;1.10;;;13.10;99.90;;;;;;5058356;28;20173;-56
2023/06/03 02:34:47;;;;;;;1.70;1.20;;;13.10;99.90;;;;;;5092317;28;20169;-53
2023/06/03 02:37:15;;;;;;;1.57;1.30;;;13.00;99.90;;;;;;5059098;28;20204;-55
2023/06/03 02:39:42;;;;;;;1.77;1.30;;;13.00;99.90;;;;;;5076109;28;20169;-53
2023/06/03 02:42:08;;;;;;;1.70;1.17;;;12.90;99.90;;;;;;5058041;28;20207;-53
2023/06/03 02:44:33;;;;;;;2.80;1.63;;;12.90;99.90;;;;;;5057967;28;20294;-50
2023/06/03 02:47:06;;;;;;;2.43;1.50;;;12.80;99.90;;;;;;5091550;28;20192;-57
2023/06/03 02:49:32;;;;;;;2.57;1.53;;;12.80;99.90;;;;;;5092235;28;20230;-56
2023/06/03 02:51:58;;;;;;;3.60;1.40;;;12.80;99.90;;;;;;5058102;28;20173;-56
2023/06/03 02:54:23;;;;;;;2.07;1.50;;;12.70;99.90;;;;;;5075631;28;20168;-52
2023/06/03 02:56:49;;;;;;;2.03;1.73;;;12.70;99.90;;;;;;5058237;28;20173;-52
2023/06/03 02:59:15;;;;;;;2.90;1.57;;;12.80;99.90;;;;;;5076263;28;20525;-57
2023/06/03 03:01:40;;;;;;;3.20;1.30;;;12.70;99.90;;;;;;5061780;28;20169;-53
2023/06/03 03:04:06;;;;;;;2.93;1.63;;;12.70;99.90;;;;;;5061717;28;20173;-54
2023/06/03 03:06:45;;;;;;;1.93;1.53;;;12.70;99.90;;;;;;5062013;28;20179;-54
2023/06/03 03:09:11;;;;;;;4.40;2.03;;;12.60;99.90;;;;;;5061662;28;20196;-57
2023/06/03 03:11:36;;;;;;;3.17;1.47;;;12.60;99.90;;;;;;5061807;28;20169;-55
2023/06/03 03:14:02;;;;;;;1.57;1.30;;;12.50;99.90;;;;;;5061771;28;20458;-55
2023/06/03 03:16:28;;;;;;;5.13;2.03;;;12.50;99.90;;;;;;5062222;28;20165;-53
2023/06/03 03:18:53;;;;;;;3.17;1.57;;;12.40;99.90;;;;;;5061266;28;20507;-56
2023/06/03 03:21:19;;;;;;;3.50;1.60;;;12.40;99.90;;;;;;5061509;28;20711;-56
2023/06/03 03:23:45;;;;;;;2.70;1.40;;;12.40;99.90;;;;;;5061405;28;20540;-53
2023/06/03 03:26:11;;;;;;;2.40;1.50;;;12.40;99.90;;;;;;5061244;28;20271;-55
2023/06/03 03:28:37;;;;;;;2.47;1.93;;;12.40;99.90;;;;;;5094085;28;20216;-56
2023/06/03 03:31:06;;;;;;;3.17;1.53;;;12.40;99.90;;;;;;5061106;28;20209;-57
2023/06/03 03:33:32;;;;;;;2.43;1.40;;;12.30;99.90;;;;;;5077043;28;20176;-57
2023/06/03 03:36:08;;;;;;;3.43;1.63;;;12.30;99.90;;;;;;5076553;28;20177;-55
2023/06/03 03:38:34;;;;;;;3.33;1.70;;;12.30;99.90;;;;;;5061097;28;20160;-57
2023/06/03 03:41:03;;;;;;;2.33;1.77;;;12.30;99.90;;;;;;5060564;28;20633;-57
2023/06/03 03:43:50;;;;;;;4.73;1.57;;;12.30;99.90;;;;;;5061349;28;20547;-53
2023/06/03 03:46:16;;;;;;;2.43;1.80;;;12.30;99.90;;;;;;5060843;28;20238;-56
2023/06/03 03:48:41;;;;;;;3.30;1.80;;;12.30;99.90;;;;;;5094466;28;20286;-57
2023/06/03 03:51:07;;;;;;;3.50;1.80;;;12.30;99.90;;;;;;5060333;28;20212;-58
2023/06/03 03:53:35;;;;;;;2.30;1.57;;;12.30;99.90;;;;;;5060016;28;20263;-57
2023/06/03 03:56:01;;;;;;;4.87;2.00;;;12.20;99.90;;;;;;5060250;28;20550;-57
2023/06/03 03:58:30;;;;;;;2.17;1.50;;;12.20;99.90;;;;;;5077996;28;20172;-57
2023/06/03 04:00:59;;;;;;;2.50;1.70;;;12.20;99.90;;;;;;5059945;28;20229;-57
2023/06/03 04:03:26;;;;;;;3.73;1.70;;;12.20;99.90;;;;;;5059277;28;20457;-57
2023/06/03 04:06:01;;;;;;;2.10;1.60;;;12.20;99.90;;;;;;5077437;28;20257;-56
2023/06/03 04:08:45;;;;;;;4.17;1.57;;;12.20;99.90;;;;;;5077749;28;20168;-57
2023/06/03 04:11:26;;;;;;;4.00;2.00;;;12.10;99.90;;;;;;5059441;28;20200;-55
2023/06/03 04:13:53;;;;;;;3.27;1.70;;;12.20;99.90;;;;;;5058814;28;20179;-56
2023/06/03 04:16:50;;;;;;;3.93;2.03;;;12.20;99.90;;;;;;5091746;28;20168;-55
2023/06/03 04:19:19;;;;;;;2.20;1.87;;;12.20;99.90;;;;;;5056389;28;20165;-54
2023/06/03 04:21:45;;;;;;;2.97;2.00;;;12.20;99.90;;;;;;5055389;28;20180;-55
2023/06/03 04:24:11;;;;;;;3.93;1.97;;;12.20;99.90;;;;;;5056362;28;20230;-55
2023/06/03 04:26:38;;;;;;;3.97;1.67;;;12.20;99.90;;;;;;5056308;28;20176;-54
2023/06/03 04:29:04;;;;;;;3.60;1.67;;;12.20;99.90;;;;;;5074267;28;20224;-57
2023/06/03 04:31:30;;;;;;;4.90;1.70;;;12.20;99.90;;;;;;5058061;28;20169;-58
2023/06/03 04:33:56;;;;;;;2.03;1.70;;;12.20;99.90;;;;;;5059059;28;20226;-54
2023/06/03 04:36:21;;;;;;;4.10;2.27;;;12.30;99.90;;;;;;5092293;28;20269;-53
2023/06/03 04:38:48;;;;;;;4.23;2.17;;;12.30;99.90;;;;;;5075536;28;20175;-58
2023/06/03 04:41:16;;;;;;;6.00;2.13;;;12.30;99.90;;;;;;5058190;28;20176;-57
2023/06/03 04:43:45;;;;;;;3.93;2.00;;;12.30;99.90;;;;;;5057767;28;20180;-57
2023/06/03 04:46:11;;;;;;;4.20;1.90;;;12.40;99.90;;;;;;5056825;28;20173;-57
2023/06/03 04:48:41;;;;;;;3.27;1.50;;;12.40;99.90;;;;;;5058076;28;20176;-57
2023/06/03 04:51:09;;;;;;;3.27;2.10;;;12.40;99.90;;;;;;5057375;28;20208;-57
2023/06/03 04:53:36;;;;;;;3.37;1.80;;;12.50;99.90;;;;;;5057772;28;20169;-57
2023/06/03 04:56:03;;;;;;;2.63;1.43;;;12.50;99.90;;;;;;5074389;28;20160;-57
2023/06/03 04:58:28;;;;;;;1.53;1.43;;;12.50;99.90;;;;;;5057246;28;20197;-57
2023/06/03 05:00:54;;;;;;;2.57;1.43;;;12.60;99.90;;;;;;5089836;28;20205;-57
2023/06/03 05:03:19;;;;;;;2.47;1.40;;;12.60;99.90;;;;;;5056000;28;20165;-55
2023/06/03 05:05:45;;;;;;;3.17;1.47;;;12.60;99.90;;;;;;5056494;28;20222;-56
2023/06/03 05:08:11;;;;;;;2.17;1.47;;;12.60;99.90;;;;;;5056894;28;20176;-57
2023/06/03 05:10:37;;;;;;;3.00;1.60;;;12.60;99.90;;;;;;5074331;28;20287;-56
2023/06/03 05:13:04;;;;;;;3.77;1.33;;;12.60;99.90;;;;;;5056444;28;20278;-56
2023/06/03 05:15:30;;;;;;;4.80;1.30;;;12.70;99.90;;;;;;5088909;28;20180;-57
2023/06/03 05:18:03;;;;;;;2.03;1.40;;;12.70;99.90;;;;;;5072740;28;20161;-56
2023/06/03 05:20:30;;;;;;;2.87;1.73;;;12.70;99.90;;;;;;5072410;28;20161;-57
2023/06/03 05:22:55;;;;;;;3.43;1.50;;;12.70;99.90;;;;;;5052556;28;20188;-56
2023/06/03 05:25:22;;;;;;;2.97;1.00;;;12.70;99.90;;;;;;5069443;28;20169;-57
2023/06/03 05:27:48;;;;;;;1.10;1.00;;;12.80;99.90;;;;;;5052226;28;20227;-57
2023/06/03 05:30:14;;;;;;;2.00;0.87;;;12.80;99.90;;;;;;5069287;28;20491;-56
2023/06/03 05:32:41;;;;;;;2.53;1.53;;;12.80;99.90;;;;;;5051890;28;20252;-57
2023/06/03 05:35:07;;;;;;;3.27;1.23;;;12.90;99.90;;;;;;5053063;28;20645;-56
2023/06/03 05:37:33;;;;;;;1.43;1.13;;;12.90;99.90;;;;;;5071392;28;20176;-57
2023/06/03 05:39:58;;;;;;;1.40;0.97;;;12.90;99.90;;;;;;5072319;28;20168;-57
2023/06/03 05:42:24;;;;;;;2.30;1.30;;;12.90;99.90;;;;;;5056191;28;20441;-58
2023/06/03 05:44:50;;;;;;;1.13;0.80;;;12.90;99.90;;;;;;5055483;28;20347;-57
2023/06/03 05:47:15;;;;;;;0.77;0.70;;;12.90;99.90;;;;;;5055544;28;20559;-58
2023/06/03 05:49:41;;;;;;;2.13;0.90;;;12.90;99.90;;;;;;5054965;28;20215;-57
2023/06/03 05:52:07;;;;;;;1.43;0.90;;;12.90;99.90;;;;;;5071600;28;20169;-56
2023/06/03 05:54:32;;;;;;;2.07;1.10;;;13.00;99.90;;;;;;5071301;28;20165;-57
2023/06/03 05:56:58;;;;;;;1.83;1.10;;;13.00;99.90;;;;;;5054037;28;20275;-55
2023/06/03 05:59:24;;;;;;;4.00;1.10;;;12.90;99.90;;;;;;5053239;28;20326;-57
2023/06/03 06:01:50;;;;;;;1.30;1.00;;;12.90;99.90;;;;;;5071474;28;20176;-55
2023/06/03 06:04:16;;;;;;;1.93;1.00;;;13.00;99.90;;;;;;5071925;28;20236;-56
2023/06/03 06:06:43;;;;;;;7.07;1.43;;;12.90;99.90;;;;;;5073358;28;20206;-57
2023/06/03 06:09:08;;;;;;;2.20;0.87;;;13.00;99.90;;;;;;5055950;28;20173;-57
2023/06/03 06:11:34;;;;;;;2.37;1.00;;;13.00;99.90;;;;;;5054860;28;20179;-55
2023/06/03 06:14:00;;;;;;;2.07;1.07;;;13.00;99.90;;;;;;5054842;28;20177;-57
2023/06/03 06:16:25;;;;;;;1.93;1.40;;;13.10;99.90;;;;;;5071223;28;20825;-58
2023/06/03 06:18:51;;;;;;;2.07;1.00;;;13.10;99.90;;;;;;5070982;28;20161;-58
2023/06/03 06:21:16;;;;;;;0.60;0.60;;;13.20;99.90;;;;;;5053047;28;20184;-58
2023/06/03 06:23:43;;;;;;;2.60;1.30;;;13.20;99.90;;;;;;5053680;28;20263;-58
2023/06/03 06:26:09;;;;;;;7.00;0.80;;;13.20;99.90;;;;;;5071418;28;20196;-55
2023/06/03 06:28:34;;;;;;;0.77;0.70;;;13.20;99.90;;;;;;5071525;28;20226;-57
2023/06/03 06:31:04;;;;;;;2.23;0.73;;;13.30;99.90;;;;;;5052410;28;20216;-57
2023/06/03 06:33:33;;;;;;;1.03;0.60;;;13.30;99.90;;;;;;5053506;28;20165;-56
2023/06/03 06:36:03;;;;;;;2.13;1.00;;;13.30;99.90;;;;;;5056280;28;20279;-58
2023/06/03 06:38:29;;;;;;;0.83;0.70;;;13.30;99.90;;;;;;5057210;28;20257;-57
2023/06/03 06:40:54;;;;;;;1.60;0.83;;;13.30;99.90;;;;;;5056405;28;20208;-57
2023/06/03 06:43:25;;;;;;;3.70;0.70;;;13.40;99.90;;;;;;5056120;28;20169;-58
2023/06/03 06:45:54;;;;;;;1.00;0.70;;;13.30;99.90;;;;;;5058666;28;20785;-58
2023/06/03 06:48:20;;;;;;;0.80;0.70;;;13.40;99.90;;;;;;5057048;28;20169;-57
2023/06/03 06:50:47;;;;;;;1.73;0.90;;;13.40;99.90;;;;;;5056409;28;20493;-56
2023/06/03 06:53:18;;;;;;;1.53;0.90;;;13.40;99.90;;;;;;5072906;28;20165;-58
2023/06/03 06:55:55;;;;;;;1.23;0.73;;;13.40;99.90;;;;;;5073663;28;20171;-58
2023/06/03 06:58:22;;;;;;;1.83;1.13;;;13.50;99.90;;;;;;5055954;28;20233;-54
2023/06/03 07:00:49;;;;;;;0.97;0.77;;;13.40;99.90;;;;;;5055221;28;20232;-57
2023/06/03 07:03:17;;;;;;;1.60;0.70;;;13.50;99.90;;;;;;5070386;28;20179;-58
2023/06/03 07:05:43;;;;;;;0.60;0.50;;;13.50;99.90;;;;;;5054003;28;20266;-57
2023/06/03 07:08:10;;;;;;;1.87;1.10;;;13.50;99.90;;;;;;5053757;28;20232;-60
2023/06/03 07:10:36;;;;;;;1.53;0.70;;;13.60;99.90;;;;;;5054175;28;20897;-55
2023/06/03 07:13:02;;;;;;;1.10;0.70;;;13.60;99.90;;;;;;5053164;28;20268;-57
2023/06/03 07:15:29;;;;;;;3.13;1.27;;;13.60;99.90;;;;;;5053985;28;20195;-58
2023/06/03 07:17:56;;;;;;;0.90;0.80;;;13.70;99.90;;;;;;5055844;28;20276;-58
2023/06/03 07:20:28;;;;;;;0.97;0.70;;;13.70;99.90;;;;;;5055456;28;20173;-56
2023/06/03 07:22:54;;;;;;;1.83;0.73;;;13.70;99.90;;;;;;5055214;28;20261;-58
2023/06/03 07:25:43;;;;;;;1.60;0.90;;;13.70;99.90;;;;;;5055190;28;20240;-57
2023/06/03 07:28:14;;;;;;;1.80;0.70;;;13.80;99.90;;;;;;5073510;28;20201;-58
2023/06/03 07:30:41;;;;;;;1.67;0.70;;;13.80;99.90;;;;;;5072028;28;20208;-57
2023/06/03 07:33:10;;;;;;;1.80;0.70;;;13.80;99.90;;;;;;5052404;28;20264;-57
2023/06/03 07:35:36;;;;;;;1.63;0.77;;;13.80;99.90;;;;;;5069778;28;20210;-58
2023/06/03 07:38:05;;;;;;;0.93;0.67;;;13.90;99.90;;;;;;5053091;28;20177;-56
2023/06/03 07:40:42;;;;;;;1.27;0.93;;;13.90;99.90;;;;;;5055687;28;20200;-60
2023/06/03 07:43:10;;;;;;;2.20;0.77;;;13.90;99.90;;;;;;5054833;28;20238;-58
2023/06/03 07:45:36;;;;;;;1.27;0.80;;;14.00;99.90;;;;;;5054695;28;20302;-57
2023/06/03 07:48:03;;;;;;;1.60;0.50;;;14.00;99.90;;;;;;5053847;28;20183;-58
2023/06/03 07:50:29;;;;;;;2.03;0.83;;;14.00;99.90;;;;;;5049204;28;20204;-57
2023/06/03 07:53:00;;;;;;;1.40;0.73;;;14.00;99.90;;;;;;5043703;28;20257;-56
2023/06/03 07:55:43;;;;;;;2.83;1.00;;;14.10;99.90;;;;;;5045358;28;20169;-58
2023/06/03 07:58:10;;;;;;;1.00;0.60;;;14.10;99.90;;;;;;5044910;28;20528;-58
2023/06/03 08:00:40;;;;;;;2.27;0.60;;;14.10;99.90;;;;;;5060864;28;20316;-55
2023/06/03 08:03:06;;;;;;;1.07;0.70;;;14.20;99.90;;;;;;5061416;28;20788;-57
2023/06/03 08:05:36;;;;;;;0.80;0.60;;;14.20;99.90;;;;;;5062567;28;20200;-58
2023/06/03 08:08:09;;;;;;;2.47;0.77;;;14.20;99.90;;;;;;5063649;28;20335;-58
2023/06/03 08:10:35;;;;;;;0.60;0.60;;;14.30;99.90;;;;;;5045356;28;20580;-58
2023/06/03 08:13:02;;;;;;;0.60;0.60;;;14.30;99.90;;;;;;5044226;28;20176;-58
2023/06/03 08:15:31;;;;;;;2.13;0.93;;;14.40;99.90;;;;;;5046702;28;20185;-58
2023/06/03 08:17:58;;;;;;;1.47;0.77;;;14.40;99.90;;;;;;5050238;28;20256;-58
2023/06/03 08:20:27;;;;;;;1.20;0.90;;;14.40;99.90;;;;;;5050428;28;20211;-57
2023/06/03 08:22:56;;;;;;;1.40;0.87;;;14.50;99.90;;;;;;5055024;28;20173;-58
2023/06/03 08:25:23;;;;;;;0.93;0.50;;;14.50;99.90;;;;;;5056932;28;20177;-57
2023/06/03 08:27:49;;;;;;;0.70;0.60;;;14.50;99.90;;;;;;5072111;28;20247;-56
2023/06/03 08:30:16;;;;;;;1.20;0.70;;;14.50;99.90;;;;;;5052879;28;20405;-57
2023/06/03 08:32:42;;;;;;;0.70;0.60;;;14.60;99.90;;;;;;5051839;28;20168;-57
2023/06/03 08:35:09;;;;;;;1.23;0.53;;;14.60;99.90;;;;;;5052122;28;20169;-58
2023/06/03 08:37:36;;;;;;;0.67;0.53;;;14.70;99.90;;;;;;5052817;28;20173;-57
2023/06/03 08:40:07;;;;;;;1.27;0.87;;;14.70;99.90;;;;;;5052876;28;20181;-58
2023/06/03 08:42:38;;;;;;;0.70;0.57;;;14.70;99.90;;;;;;5053511;28;20176;-56
2023/06/03 08:45:05;;;;;;;0.87;0.50;;;14.80;99.90;;;;;;5053897;28;20191;-56
2023/06/03 08:47:59;;;;;;;0.70;0.60;;;14.80;99.90;;;;;;5070686;28;20211;-58
2023/06/03 08:50:27;;;;;;;0.50;0.50;;;14.90;99.90;;;;;;5071203;28;20274;-57
2023/06/03 08:52:53;;;;;;;0.70;0.57;;;14.90;99.90;;;;;;5052851;28;20169;-57
2023/06/03 08:55:21;;;;;;;1.43;0.60;;;15.00;99.90;;;;;;5070509;28;20533;-56
2023/06/03 08:58:12;;;;;;;1.27;0.63;;;15.00;99.90;;;;;;5055059;28;20177;-58
2023/06/03 09:00:38;;;;;;;1.10;0.80;;;15.00;99.90;;;;;;5040706;28;20215;-59
2023/06/03 09:03:11;;;;;;;2.17;0.70;;;15.10;99.90;;;;;;5055079;28;20203;-58
2023/06/03 09:05:38;;;;;;;1.37;0.80;;;15.10;99.90;;;;;;5052598;28;20177;-58
2023/06/03 09:08:05;;;;;;;1.10;0.83;;;15.10;99.90;;;;;;5052873;28;20705;-58
2023/06/03 09:10:32;;;;;;;1.63;0.80;;;15.10;99.90;;;;;;5050836;28;20307;-59
2023/06/03 09:13:01;;;;;;;0.97;0.50;;;15.20;99.90;;;;;;5048221;28;20283;-59
2023/06/03 09:15:29;;;;;;;1.50;0.90;;;15.20;99.90;;;;;;5061085;28;20250;-58
2023/06/03 09:17:55;;;;;;;1.97;0.60;;;15.20;99.90;;;;;;5024954;28;20874;-57
2023/06/03 09:20:23;;;;;;;2.63;0.60;;;15.30;99.90;;;;;;5042213;28;20259;-59
2023/06/03 09:22:51;;;;;;;0.83;0.50;;;15.30;99.90;;;;;;5042431;28;20172;-58
2023/06/03 09:25:20;;;;;;;1.00;0.73;;;15.40;99.90;;;;;;5043522;28;20470;-57
2023/06/03 09:27:45;;;;;;;2.67;0.80;;;15.50;99.90;;;;;;5046745;28;20185;-58
2023/06/03 09:30:11;;;;;;;3.83;1.00;;;15.50;99.90;;;;;;5049466;28;20319;-57
2023/06/03 09:32:38;;;;;;;1.70;0.70;;;15.60;99.90;;;;;;5050769;28;20267;-59
2023/06/03 09:35:05;;;;;;;1.60;0.80;;;15.60;99.90;;;;;;5066922;28;20177;-64
2023/06/03 09:37:33;;;;;;;0.77;0.70;;;15.60;99.90;;;;;;5049664;28;20169;-58
2023/06/03 09:40:05;;;;;;;1.57;0.73;;;15.70;99.90;;;;;;5051041;28;20204;-60
2023/06/03 09:42:44;;;;;;;1.73;0.80;;;15.70;99.90;;;;;;5068330;28;20168;-57
2023/06/03 09:45:34;;;;;;;0.67;0.53;;;15.70;99.90;;;;;;5049165;28;20184;-58
2023/06/03 09:48:01;;;;;;;1.17;0.70;;;15.80;99.90;;;;;;5066177;28;20173;-58
2023/06/03 09:50:28;;;;;;;2.37;0.93;;;15.80;99.90;;;;;;5066072;28;20212;-60
2023/06/03 09:52:57;;;;;;;0.90;0.90;;;15.90;99.90;;;;;;5049926;28;20164;-60
2023/06/03 09:55:32;;;;;;;1.20;0.77;;;15.90;99.90;;;;;;5068101;28;20192;-58
2023/06/03 09:58:08;;;;;;;2.13;1.00;;;16.00;99.90;;;;;;5066219;28;20188;-59
2023/06/03 10:00:48;;;;;;;2.20;0.63;;;16.00;99.90;;;;;;5048473;28;20171;-59
2023/06/03 10:03:20;;;;;;;1.20;0.87;;;16.00;99.90;;;;;;5066636;28;20202;-59
2023/06/03 10:05:46;;;;;;;2.53;0.90;;;16.10;99.90;;;;;;5065042;28;20279;-59
2023/06/03 10:08:13;;;;;;;1.23;0.70;;;16.20;99.90;;;;;;5066387;28;20788;-58
2023/06/03 10:10:57;;;;;;;1.47;0.50;;;16.20;99.90;;;;;;5052268;28;20227;-58
2023/06/03 10:13:33;;;;;;;1.30;0.60;;;16.20;99.90;;;;;;5052441;28;20168;-59
2023/06/03 10:16:01;;;;;;;5.10;0.90;;;16.30;99.90;;;;;;5069451;28;20194;-56
2023/06/03 10:18:37;;;;;;;0.90;0.60;;;16.40;99.90;;;;;;5070156;28;20251;-58
2023/06/03 10:21:13;;;;;;;1.13;0.80;;;16.40;99.90;;;;;;5054620;28;20199;-53
2023/06/03 10:23:41;;;;;;;3.03;0.90;;;16.40;99.90;;;;;;5052984;28;20175;-58
2023/06/03 10:26:10;;;;;;;0.73;0.70;;;16.50;99.90;;;;;;5036322;28;20744;-59
2023/06/03 10:28:38;;;;;;;0.93;0.80;;;16.50;99.90;;;;;;5070426;28;20225;-59
2023/06/03 10:31:11;;;;;;;2.63;0.50;;;16.50;99.90;;;;;;5051440;28;20219;-59
2023/06/03 10:33:39;;;;;;;1.03;0.70;;;16.60;99.90;;;;;;5050360;28;20173;-59
2023/06/03 10:36:06;;;;;;;1.23;0.90;;;16.60;99.90;;;;;;5051242;28;20793;-58
2023/06/03 10:38:40;;;;;;;2.97;0.80;;;16.70;99.90;;;;;;5052298;28;20172;-57
2023/06/03 10:41:08;;;;;;;0.73;0.60;;;16.80;99.90;;;;;;5053309;28;20188;-59
2023/06/03 10:43:37;;;;;;;0.57;0.50;;;16.80;99.90;;;;;;5055857;28;20173;-59
2023/06/03 10:46:03;;;;;;;1.13;0.70;;;16.80;99.90;;;;;;5071827;28;20173;-58
2023/06/03 10:48:31;;;;;;;0.90;0.60;;;16.80;99.90;;;;;;5054938;28;20181;-59
2023/06/03 10:51:13;;;;;;;1.20;0.67;;;16.80;99.80;;;;;;5055490;28;20864;-58
2023/06/03 10:54:30;;;;;;;1.73;0.70;;;16.90;99.90;;;;;;5053476;28;20173;-58
2023/06/03 10:57:06;;;;;;;2.90;0.80;;;16.90;99.90;;;;;;4971403;28;20186;-58
2023/06/03 10:59:42;;;;;;;3.80;1.03;;;17.00;99.90;;;;;;4970338;28;20187;-58
2023/06/03 11:02:09;;;;;;;2.47;0.83;;;17.10;99.20;;;;;;5019208;28;20560;-57
2023/06/03 11:04:36;;;;;;;1.10;0.50;;;17.10;99.90;;;;;;5067011;28;20173;-59
2023/06/03 11:07:25;;;;;;;1.90;0.60;;;17.20;99.90;;;;;;5048034;28;20485;-58
2023/06/03 11:09:51;;;;;;;1.23;0.73;;;17.30;99.90;;;;;;5046731;28;20250;-58
2023/06/03 11:12:17;;;;;;;2.50;0.80;;;17.30;99.50;;;;;;5049181;28;20177;-58
2023/06/03 11:14:53;;;;;;;3.70;1.20;;;17.40;99.90;;;;;;5048369;28;20173;-59
2023/06/03 11:17:22;;;;;;;1.13;0.73;;;17.40;98.60;;;;;;5082472;28;20176;-58
2023/06/03 11:19:54;;;;;;;1.73;0.70;;;17.40;92.10;;;;;;5067643;28;20181;-57
2023/06/03 11:22:29;;;;;;;3.70;1.00;;;17.40;91.00;;;;;;5069978;28;20255;-58
2023/06/03 11:24:59;;;;;;;2.17;1.10;;;17.40;95.90;;;;;;5053207;28;20172;-57
2023/06/03 11:27:26;;;;;;;1.17;0.80;;;17.40;95.40;;;;;;5052036;28;20189;-58
2023/06/03 11:29:59;;;;;;;1.13;0.70;;;17.60;94.00;;;;;;5051147;28;20216;-56
2023/06/03 11:32:31;;;;;;;0.67;0.67;;;17.60;88.70;;;;;;5051465;28;20779;-58
2023/06/03 11:35:03;;;;;;;1.10;0.70;;;17.70;90.30;;;;;;5048649;28;20259;-57
2023/06/03 11:37:41;;;;;;;1.20;0.50;;;17.70;91.90;;;;;;5046041;28;20169;-58
2023/06/03 11:40:16;;;;;;;2.13;0.67;;;17.80;93.90;;;;;;5063719;28;20164;-56
2023/06/03 11:42:54;;;;;;;1.30;0.70;;;17.90;95.20;;;;;;5047154;28;20169;-56
2023/06/03 11:47:51;;;;;;;0.50;0.50;;;18.10;93.60;;;;;;5065803;28;20230;-58
2023/06/03 11:50:19;;;;;;;2.83;0.80;;;18.20;92.60;;;;;;5049855;28;20215;-57
2023/06/03 11:52:46;;;;;;;0.83;0.73;;;18.30;94.40;;;;;;5048498;28;20267;-57
2023/06/03 11:55:36;;;;;;;0.90;0.77;;;18.50;90.70;;;;;;5048979;28;20233;-57
2023/06/03 11:58:10;;;;;;;3.93;0.70;;;18.70;83.10;;;;;;5049147;28;20196;-57
2023/06/03 12:00:35;;;;;;;1.27;0.60;;;18.80;88.50;;;;;;5046863;28;20208;-57
2023/06/03 12:03:01;;;;;;;0.80;0.50;;;18.90;89.70;;;;;;5043615;28;20200;-56
2023/06/03 12:05:29;;;;;;;1.13;1.00;;;19.10;90.70;;;;;;5074760;28;20504;-57
2023/06/03 12:07:56;;;;;;;4.77;0.70;;;19.20;89.00;;;;;;5075747;28;20679;-57
2023/06/03 12:10:23;;;;;;;0.80;0.70;;;19.30;85.20;;;;;;5043232;28;20200;-57
2023/06/03 12:12:53;;;;;;;0.77;0.70;;;19.40;86.10;;;;;;5044240;28;20219;-56
2023/06/03 12:15:20;;;;;;;0.70;0.53;;;19.50;82.30;;;;;;5045277;28;20179;-55
2023/06/03 12:17:48;;;;;;;0.73;0.73;;;19.60;83.00;;;;;;5064038;28;20172;-56
2023/06/03 12:20:29;;;;;;;2.00;0.70;;;19.60;75.80;;;;;;5048197;28;20181;-57
2023/06/03 12:23:05;;;;;;;1.70;0.70;;;19.60;77.80;;;;;;5049522;28;20214;-55
2023/06/03 12:25:34;;;;;;;0.67;0.60;;;19.60;77.50;;;;;;5050927;28;20536;-56
2023/06/03 12:28:28;;;;;;;1.07;0.70;;;19.70;78.80;;;;;;5046568;28;20228;-57
2023/06/03 12:30:54;;;;;;;0.57;0.53;;;19.80;79.20;;;;;;5047109;28;20267;-57
2023/06/03 12:33:20;;;;;;;0.87;0.63;;;20.00;81.00;;;;;;5046201;28;20173;-57
2023/06/03 12:35:56;;;;;;;6.77;1.10;;;20.10;83.10;;;;;;5045367;28;20238;-57
2023/06/03 12:38:23;;;;;;;0.90;0.70;;;20.40;84.90;;;;;;5045558;28;20169;-57
2023/06/03 12:40:49;;;;;;;1.27;0.80;;;20.50;85.40;;;;;;5025790;28;20174;-56
2023/06/03 12:43:19;;;;;;;2.20;0.90;;;20.60;77.50;;;;;;5044561;28;20263;-57
2023/06/03 12:45:47;;;;;;;2.30;1.27;;;20.70;80.10;;;;;;5045115;28;20753;-57
2023/06/03 12:48:34;;;;;;;1.97;1.10;;;20.90;75.40;;;;;;5043696;28;20174;-57
2023/06/03 12:51:00;;;;;;;1.20;0.90;;;21.00;76.40;;;;;;5045028;28;20209;-54
2023/06/03 12:53:25;;;;;;;1.97;1.00;;;21.10;77.90;;;;;;5045329;28;20231;-57
2023/06/03 12:55:51;;;;;;;1.33;0.90;;;21.20;78.20;;;;;;5046967;28;20170;-56
2023/06/03 12:58:19;;;;;;;1.03;0.77;;;21.30;75.60;;;;;;5048182;28;20169;-57
2023/06/03 13:00:49;;;;;;;1.70;0.90;;;21.40;81.90;;;;;;5061542;28;20201;-56
2023/06/03 13:03:21;;;;;;;1.20;0.77;;;21.50;84.80;;;;;;5044886;28;20193;-57